sensor_id;sensor_type;location;lat;lon;timestamp;P1;durP1;ratioP1;P2;durP2;ratioP2
15153;SDS011;7677;41.896;25.004;2023-03-24T00:00:09;4.33;;;3.00;;
15153;SDS011;7677;41.896;25.004;2023-03-24T00:02:38;2.83;;;2.60;;
15153;SDS011;7677;41.896;25.004;2023-03-24T00:05:07;3.50;;;2.93;;
15153;SDS011;7677;41.896;25.004;2023-03-24T00:07:36;3.70;;;3.00;;
15153;SDS011;7677;41.896;25.004;2023-03-24T00:10:07;3.77;;;3.13;;
15153;SDS011;7677;41.896;25.004;2023-03-24T00:12:37;3.47;;;2.60;;
15153;SDS011;7677;41.896;25.004;2023-03-24T00:15:09;3.60;;;3.20;;
15153;SDS011;7677;41.896;25.004;2023-03-24T00:17:38;4.37;;;2.90;;
15153;SDS011;7677;41.896;25.004;2023-03-24T00:20:07;3.47;;;2.77;;
15153;SDS011;7677;41.896;25.004;2023-03-24T00:22:40;4.80;;;2.87;;
15153;SDS011;7677;41.896;25.004;2023-03-24T00:25:10;2.80;;;2.43;;
15153;SDS011;7677;41.896;25.004;2023-03-24T00:27:39;2.57;;;2.33;;
15153;SDS011;7677;41.896;25.004;2023-03-24T00:30:11;3.40;;;3.10;;
15153;SDS011;7677;41.896;25.004;2023-03-24T00:32:40;2.97;;;2.67;;
15153;SDS011;7677;41.896;25.004;2023-03-24T00:35:08;6.10;;;3.00;;
15153;SDS011;7677;41.896;25.004;2023-03-24T00:37:37;3.10;;;2.70;;
15153;SDS011;7677;41.896;25.004;2023-03-24T00:40:08;3.10;;;2.80;;
15153;SDS011;7677;41.896;25.004;2023-03-24T00:42:38;3.80;;;2.97;;
15153;SDS011;7677;41.896;25.004;2023-03-24T00:45:06;4.13;;;3.17;;
15153;SDS011;7677;41.896;25.004;2023-03-24T00:47:37;3.47;;;2.60;;
15153;SDS011;7677;41.896;25.004;2023-03-24T00:50:05;5.40;;;2.90;;
15153;SDS011;7677;41.896;25.004;2023-03-24T00:52:35;3.60;;;2.60;;
15153;SDS011;7677;41.896;25.004;2023-03-24T00:55:09;2.97;;;2.50;;
15153;SDS011;7677;41.896;25.004;2023-03-24T00:57:40;3.93;;;3.00;;
15153;SDS011;7677;41.896;25.004;2023-03-24T01:00:16;4.90;;;3.00;;
15153;SDS011;7677;41.896;25.004;2023-03-24T01:02:47;6.60;;;3.40;;
15153;SDS011;7677;41.896;25.004;2023-03-24T01:05:17;3.63;;;2.90;;
15153;SDS011;7677;41.896;25.004;2023-03-24T01:07:46;4.00;;;2.70;;
15153;SDS011;7677;41.896;25.004;2023-03-24T01:10:17;4.57;;;3.03;;
15153;SDS011;7677;41.896;25.004;2023-03-24T01:12:46;3.03;;;2.73;;
15153;SDS011;7677;41.896;25.004;2023-03-24T01:15:15;3.80;;;3.13;;
15153;SDS011;7677;41.896;25.004;2023-03-24T01:17:45;3.43;;;2.83;;
15153;SDS011;7677;41.896;25.004;2023-03-24T01:20:14;4.93;;;2.77;;
15153;SDS011;7677;41.896;25.004;2023-03-24T01:22:42;8.53;;;3.33;;
15153;SDS011;7677;41.896;25.004;2023-03-24T01:25:13;4.00;;;3.03;;
15153;SDS011;7677;41.896;25.004;2023-03-24T01:27:50;4.07;;;3.23;;
15153;SDS011;7677;41.896;25.004;2023-03-24T01:30:19;3.50;;;2.80;;
15153;SDS011;7677;41.896;25.004;2023-03-24T01:32:53;3.63;;;2.67;;
15153;SDS011;7677;41.896;25.004;2023-03-24T01:35:21;3.00;;;2.70;;
15153;SDS011;7677;41.896;25.004;2023-03-24T01:37:51;3.33;;;3.00;;
15153;SDS011;7677;41.896;25.004;2023-03-24T01:40:20;2.80;;;2.60;;
15153;SDS011;7677;41.896;25.004;2023-03-24T01:42:49;4.80;;;3.07;;
15153;SDS011;7677;41.896;25.004;2023-03-24T01:48:37;4.00;;;3.03;;
15153;SDS011;7677;41.896;25.004;2023-03-24T01:51:09;5.00;;;2.73;;
15153;SDS011;7677;41.896;25.004;2023-03-24T01:53:44;3.33;;;3.03;;
15153;SDS011;7677;41.896;25.004;2023-03-24T01:56:14;2.90;;;2.60;;
15153;SDS011;7677;41.896;25.004;2023-03-24T01:58:43;3.87;;;3.00;;
15153;SDS011;7677;41.896;25.004;2023-03-24T02:01:15;3.60;;;3.10;;
15153;SDS011;7677;41.896;25.004;2023-03-24T02:03:44;2.83;;;2.53;;
15153;SDS011;7677;41.896;25.004;2023-03-24T02:06:12;3.97;;;3.13;;
15153;SDS011;7677;41.896;25.004;2023-03-24T02:08:41;4.20;;;3.43;;
15153;SDS011;7677;41.896;25.004;2023-03-24T02:11:12;3.53;;;2.73;;
15153;SDS011;7677;41.896;25.004;2023-03-24T02:13:40;3.20;;;2.57;;
15153;SDS011;7677;41.896;25.004;2023-03-24T02:16:12;3.37;;;2.50;;
15153;SDS011;7677;41.896;25.004;2023-03-24T02:18:56;3.20;;;2.87;;
15153;SDS011;7677;41.896;25.004;2023-03-24T02:21:54;3.10;;;2.40;;
15153;SDS011;7677;41.896;25.004;2023-03-24T02:27:59;3.23;;;2.53;;
15153;SDS011;7677;41.896;25.004;2023-03-24T02:30:43;4.23;;;3.10;;
15153;SDS011;7677;41.896;25.004;2023-03-24T02:33:49;4.17;;;2.50;;
15153;SDS011;7677;41.896;25.004;2023-03-24T02:37:03;3.40;;;2.90;;
15153;SDS011;7677;41.896;25.004;2023-03-24T02:39:52;3.00;;;2.70;;
15153;SDS011;7677;41.896;25.004;2023-03-24T02:42:35;4.23;;;3.13;;
15153;SDS011;7677;41.896;25.004;2023-03-24T02:45:15;5.80;;;3.60;;
15153;SDS011;7677;41.896;25.004;2023-03-24T02:47:52;4.03;;;3.63;;
15153;SDS011;7677;41.896;25.004;2023-03-24T02:50:28;4.07;;;3.20;;
15153;SDS011;7677;41.896;25.004;2023-03-24T02:53:00;6.57;;;3.50;;
15153;SDS011;7677;41.896;25.004;2023-03-24T02:55:34;4.57;;;2.90;;
15153;SDS011;7677;41.896;25.004;2023-03-24T02:58:06;4.33;;;3.27;;
15153;SDS011;7677;41.896;25.004;2023-03-24T03:00:39;3.30;;;2.60;;
15153;SDS011;7677;41.896;25.004;2023-03-24T03:03:12;3.50;;;3.20;;
15153;SDS011;7677;41.896;25.004;2023-03-24T03:05:43;6.03;;;3.03;;
15153;SDS011;7677;41.896;25.004;2023-03-24T03:08:13;3.53;;;3.00;;
15153;SDS011;7677;41.896;25.004;2023-03-24T03:10:47;4.20;;;3.40;;
15153;SDS011;7677;41.896;25.004;2023-03-24T03:13:15;3.67;;;3.00;;
15153;SDS011;7677;41.896;25.004;2023-03-24T03:15:46;3.93;;;3.40;;
15153;SDS011;7677;41.896;25.004;2023-03-24T03:18:16;4.17;;;3.33;;
15153;SDS011;7677;41.896;25.004;2023-03-24T03:20:47;3.87;;;3.13;;
15153;SDS011;7677;41.896;25.004;2023-03-24T03:23:22;4.13;;;3.13;;
15153;SDS011;7677;41.896;25.004;2023-03-24T03:25:53;4.87;;;3.50;;
15153;SDS011;7677;41.896;25.004;2023-03-24T03:28:29;5.57;;;3.30;;
15153;SDS011;7677;41.896;25.004;2023-03-24T03:31:01;5.33;;;3.60;;
15153;SDS011;7677;41.896;25.004;2023-03-24T03:33:33;7.83;;;4.07;;
15153;SDS011;7677;41.896;25.004;2023-03-24T03:36:06;3.43;;;2.93;;
15153;SDS011;7677;41.896;25.004;2023-03-24T03:38:41;5.63;;;3.40;;
15153;SDS011;7677;41.896;25.004;2023-03-24T03:41:14;4.70;;;3.53;;
15153;SDS011;7677;41.896;25.004;2023-03-24T03:43:43;4.00;;;3.60;;
15153;SDS011;7677;41.896;25.004;2023-03-24T03:46:11;4.00;;;3.60;;
15153;SDS011;7677;41.896;25.004;2023-03-24T03:48:41;5.30;;;3.83;;
15153;SDS011;7677;41.896;25.004;2023-03-24T03:51:09;3.47;;;3.00;;
15153;SDS011;7677;41.896;25.004;2023-03-24T03:53:39;3.93;;;3.53;;
15153;SDS011;7677;41.896;25.004;2023-03-24T03:56:09;5.17;;;3.80;;
15153;SDS011;7677;41.896;25.004;2023-03-24T03:58:38;7.30;;;4.20;;
15153;SDS011;7677;41.896;25.004;2023-03-24T04:01:11;6.23;;;3.37;;
15153;SDS011;7677;41.896;25.004;2023-03-24T04:03:50;4.60;;;3.43;;
15153;SDS011;7677;41.896;25.004;2023-03-24T04:06:40;6.40;;;3.80;;
15153;SDS011;7677;41.896;25.004;2023-03-24T04:09:18;3.60;;;3.17;;
15153;SDS011;7677;41.896;25.004;2023-03-24T04:12:03;4.50;;;3.83;;
15153;SDS011;7677;41.896;25.004;2023-03-24T04:14:44;4.30;;;3.70;;
15153;SDS011;7677;41.896;25.004;2023-03-24T04:17:36;4.57;;;3.77;;
15153;SDS011;7677;41.896;25.004;2023-03-24T04:20:13;6.63;;;4.17;;
15153;SDS011;7677;41.896;25.004;2023-03-24T04:22:47;4.23;;;3.33;;
15153;SDS011;7677;41.896;25.004;2023-03-24T04:25:28;4.13;;;3.50;;
15153;SDS011;7677;41.896;25.004;2023-03-24T04:27:59;4.23;;;3.53;;
15153;SDS011;7677;41.896;25.004;2023-03-24T04:30:35;5.00;;;3.43;;
15153;SDS011;7677;41.896;25.004;2023-03-24T04:33:08;5.83;;;3.50;;
15153;SDS011;7677;41.896;25.004;2023-03-24T04:35:43;4.30;;;3.40;;
15153;SDS011;7677;41.896;25.004;2023-03-24T04:38:14;5.07;;;3.73;;
15153;SDS011;7677;41.896;25.004;2023-03-24T04:40:48;5.00;;;3.60;;
15153;SDS011;7677;41.896;25.004;2023-03-24T04:43:17;6.50;;;3.77;;
15153;SDS011;7677;41.896;25.004;2023-03-24T04:45:47;5.80;;;3.90;;
15153;SDS011;7677;41.896;25.004;2023-03-24T04:48:15;4.80;;;3.00;;
15153;SDS011;7677;41.896;25.004;2023-03-24T04:50:48;4.93;;;3.60;;
15153;SDS011;7677;41.896;25.004;2023-03-24T04:53:19;4.07;;;3.30;;
15153;SDS011;7677;41.896;25.004;2023-03-24T04:55:52;4.13;;;2.87;;
15153;SDS011;7677;41.896;25.004;2023-03-24T04:58:25;5.57;;;3.40;;
15153;SDS011;7677;41.896;25.004;2023-03-24T05:00:54;5.30;;;3.70;;
15153;SDS011;7677;41.896;25.004;2023-03-24T05:03:22;4.93;;;3.13;;
15153;SDS011;7677;41.896;25.004;2023-03-24T05:05:50;4.37;;;3.53;;
15153;SDS011;7677;41.896;25.004;2023-03-24T05:08:17;5.17;;;3.07;;
15153;SDS011;7677;41.896;25.004;2023-03-24T05:10:45;8.03;;;3.80;;
15153;SDS011;7677;41.896;25.004;2023-03-24T05:13:12;4.47;;;3.30;;
15153;SDS011;7677;41.896;25.004;2023-03-24T05:15:40;5.07;;;4.03;;
15153;SDS011;7677;41.896;25.004;2023-03-24T05:18:08;3.77;;;2.83;;
15153;SDS011;7677;41.896;25.004;2023-03-24T05:20:38;4.30;;;3.40;;
15153;SDS011;7677;41.896;25.004;2023-03-24T05:23:05;4.37;;;3.20;;
15153;SDS011;7677;41.896;25.004;2023-03-24T05:25:36;4.27;;;3.27;;
15153;SDS011;7677;41.896;25.004;2023-03-24T05:28:04;4.33;;;3.47;;
15153;SDS011;7677;41.896;25.004;2023-03-24T05:30:31;3.90;;;3.37;;
15153;SDS011;7677;41.896;25.004;2023-03-24T05:32:59;7.53;;;3.80;;
15153;SDS011;7677;41.896;25.004;2023-03-24T05:35:27;5.33;;;4.10;;
15153;SDS011;7677;41.896;25.004;2023-03-24T05:37:54;7.13;;;3.83;;
15153;SDS011;7677;41.896;25.004;2023-03-24T05:40:22;4.37;;;3.13;;
15153;SDS011;7677;41.896;25.004;2023-03-24T05:42:49;3.60;;;3.00;;
15153;SDS011;7677;41.896;25.004;2023-03-24T05:45:16;5.57;;;3.70;;
15153;SDS011;7677;41.896;25.004;2023-03-24T05:47:45;6.23;;;3.30;;
15153;SDS011;7677;41.896;25.004;2023-03-24T05:50:13;3.53;;;3.23;;
15153;SDS011;7677;41.896;25.004;2023-03-24T05:52:41;4.27;;;3.33;;
15153;SDS011;7677;41.896;25.004;2023-03-24T05:55:09;3.97;;;3.27;;
15153;SDS011;7677;41.896;25.004;2023-03-24T05:57:36;6.23;;;3.50;;
15153;SDS011;7677;41.896;25.004;2023-03-24T06:00:05;5.13;;;3.87;;
15153;SDS011;7677;41.896;25.004;2023-03-24T06:02:38;4.80;;;3.23;;
15153;SDS011;7677;41.896;25.004;2023-03-24T06:05:05;6.03;;;4.03;;
15153;SDS011;7677;41.896;25.004;2023-03-24T06:07:34;5.10;;;3.80;;
15153;SDS011;7677;41.896;25.004;2023-03-24T06:10:02;5.13;;;3.27;;
15153;SDS011;7677;41.896;25.004;2023-03-24T06:12:32;5.07;;;3.53;;
15153;SDS011;7677;41.896;25.004;2023-03-24T06:14:59;4.73;;;4.27;;
15153;SDS011;7677;41.896;25.004;2023-03-24T06:17:27;4.57;;;3.63;;
15153;SDS011;7677;41.896;25.004;2023-03-24T06:19:54;5.23;;;4.00;;
15153;SDS011;7677;41.896;25.004;2023-03-24T06:22:30;6.43;;;4.30;;
15153;SDS011;7677;41.896;25.004;2023-03-24T06:24:58;5.37;;;4.00;;
15153;SDS011;7677;41.896;25.004;2023-03-24T06:27:28;5.50;;;3.97;;
15153;SDS011;7677;41.896;25.004;2023-03-24T06:29:55;7.30;;;4.53;;
15153;SDS011;7677;41.896;25.004;2023-03-24T06:32:22;8.27;;;5.03;;
15153;SDS011;7677;41.896;25.004;2023-03-24T06:34:50;7.50;;;5.73;;
15153;SDS011;7677;41.896;25.004;2023-03-24T06:37:17;9.80;;;5.03;;
15153;SDS011;7677;41.896;25.004;2023-03-24T06:39:45;7.60;;;5.20;;
15153;SDS011;7677;41.896;25.004;2023-03-24T06:42:12;11.67;;;5.10;;
15153;SDS011;7677;41.896;25.004;2023-03-24T06:44:41;8.07;;;5.70;;
15153;SDS011;7677;41.896;25.004;2023-03-24T06:47:08;7.90;;;6.00;;
15153;SDS011;7677;41.896;25.004;2023-03-24T06:49:36;9.60;;;6.10;;
15153;SDS011;7677;41.896;25.004;2023-03-24T06:52:03;6.63;;;5.17;;
15153;SDS011;7677;41.896;25.004;2023-03-24T06:54:30;11.40;;;6.50;;
15153;SDS011;7677;41.896;25.004;2023-03-24T06:56:57;9.03;;;5.50;;
15153;SDS011;7677;41.896;25.004;2023-03-24T06:59:25;7.37;;;5.23;;
15153;SDS011;7677;41.896;25.004;2023-03-24T07:01:54;8.00;;;6.30;;
15153;SDS011;7677;41.896;25.004;2023-03-24T07:04:21;6.60;;;4.70;;
15153;SDS011;7677;41.896;25.004;2023-03-24T07:06:50;9.33;;;5.20;;
15153;SDS011;7677;41.896;25.004;2023-03-24T07:09:17;6.33;;;4.70;;
15153;SDS011;7677;41.896;25.004;2023-03-24T07:11:44;7.60;;;6.00;;
15153;SDS011;7677;41.896;25.004;2023-03-24T07:14:12;6.33;;;5.07;;
15153;SDS011;7677;41.896;25.004;2023-03-24T07:16:39;7.70;;;5.20;;
15153;SDS011;7677;41.896;25.004;2023-03-24T07:19:08;6.50;;;5.00;;
15153;SDS011;7677;41.896;25.004;2023-03-24T07:21:35;6.63;;;5.00;;
15153;SDS011;7677;41.896;25.004;2023-03-24T07:24:02;5.43;;;4.80;;
15153;SDS011;7677;41.896;25.004;2023-03-24T07:26:30;7.97;;;5.50;;
15153;SDS011;7677;41.896;25.004;2023-03-24T07:28:57;6.43;;;4.70;;
15153;SDS011;7677;41.896;25.004;2023-03-24T07:31:24;6.07;;;5.00;;
15153;SDS011;7677;41.896;25.004;2023-03-24T07:33:51;6.00;;;5.40;;
15153;SDS011;7677;41.896;25.004;2023-03-24T07:36:20;7.80;;;5.47;;
15153;SDS011;7677;41.896;25.004;2023-03-24T07:38:47;9.60;;;6.70;;
15153;SDS011;7677;41.896;25.004;2023-03-24T07:41:14;7.03;;;5.30;;
15153;SDS011;7677;41.896;25.004;2023-03-24T07:43:55;6.57;;;4.37;;
15153;SDS011;7677;41.896;25.004;2023-03-24T07:46:22;7.33;;;5.10;;
15153;SDS011;7677;41.896;25.004;2023-03-24T07:48:49;5.97;;;5.30;;
15153;SDS011;7677;41.896;25.004;2023-03-24T07:51:16;6.33;;;4.80;;
15153;SDS011;7677;41.896;25.004;2023-03-24T07:53:45;7.60;;;5.20;;
15153;SDS011;7677;41.896;25.004;2023-03-24T07:56:12;6.73;;;4.67;;
15153;SDS011;7677;41.896;25.004;2023-03-24T07:58:40;6.80;;;5.07;;
15153;SDS011;7677;41.896;25.004;2023-03-24T08:01:08;5.80;;;4.67;;
15153;SDS011;7677;41.896;25.004;2023-03-24T08:03:35;7.03;;;5.10;;
15153;SDS011;7677;41.896;25.004;2023-03-24T08:06:03;7.30;;;5.50;;
15153;SDS011;7677;41.896;25.004;2023-03-24T08:08:31;8.83;;;4.90;;
15153;SDS011;7677;41.896;25.004;2023-03-24T08:10:59;6.37;;;4.90;;
15153;SDS011;7677;41.896;25.004;2023-03-24T08:13:27;7.17;;;4.67;;
15153;SDS011;7677;41.896;25.004;2023-03-24T08:15:54;5.90;;;5.00;;
15153;SDS011;7677;41.896;25.004;2023-03-24T08:18:22;5.57;;;4.97;;
15153;SDS011;7677;41.896;25.004;2023-03-24T08:20:49;6.73;;;5.03;;
15153;SDS011;7677;41.896;25.004;2023-03-24T08:23:21;6.63;;;5.23;;
15153;SDS011;7677;41.896;25.004;2023-03-24T08:25:48;6.47;;;5.10;;
15153;SDS011;7677;41.896;25.004;2023-03-24T08:28:17;6.77;;;5.07;;
15153;SDS011;7677;41.896;25.004;2023-03-24T08:30:44;6.53;;;5.03;;
15153;SDS011;7677;41.896;25.004;2023-03-24T08:33:11;7.43;;;5.27;;
15153;SDS011;7677;41.896;25.004;2023-03-24T08:35:40;8.00;;;5.40;;
15153;SDS011;7677;41.896;25.004;2023-03-24T08:38:09;5.30;;;4.77;;
15153;SDS011;7677;41.896;25.004;2023-03-24T08:40:37;6.20;;;4.90;;
15153;SDS011;7677;41.896;25.004;2023-03-24T08:43:06;7.93;;;5.30;;
15153;SDS011;7677;41.896;25.004;2023-03-24T08:45:36;5.70;;;4.50;;
15153;SDS011;7677;41.896;25.004;2023-03-24T08:48:04;7.10;;;5.70;;
15153;SDS011;7677;41.896;25.004;2023-03-24T08:50:33;6.53;;;5.67;;
15153;SDS011;7677;41.896;25.004;2023-03-24T08:53:01;7.67;;;6.03;;
15153;SDS011;7677;41.896;25.004;2023-03-24T08:55:29;6.67;;;5.10;;
15153;SDS011;7677;41.896;25.004;2023-03-24T08:57:56;8.97;;;6.37;;
15153;SDS011;7677;41.896;25.004;2023-03-24T09:00:24;6.97;;;5.70;;
15153;SDS011;7677;41.896;25.004;2023-03-24T09:02:54;6.93;;;5.07;;
15153;SDS011;7677;41.896;25.004;2023-03-24T09:05:23;7.43;;;5.77;;
15153;SDS011;7677;41.896;25.004;2023-03-24T09:07:51;8.00;;;5.97;;
15153;SDS011;7677;41.896;25.004;2023-03-24T09:10:19;7.63;;;6.23;;
15153;SDS011;7677;41.896;25.004;2023-03-24T09:12:48;7.23;;;5.33;;
15153;SDS011;7677;41.896;25.004;2023-03-24T09:15:15;7.20;;;5.40;;
15153;SDS011;7677;41.896;25.004;2023-03-24T09:17:42;7.73;;;6.23;;
15153;SDS011;7677;41.896;25.004;2023-03-24T09:20:12;6.93;;;5.70;;
15153;SDS011;7677;41.896;25.004;2023-03-24T09:22:42;7.83;;;5.73;;
15153;SDS011;7677;41.896;25.004;2023-03-24T09:25:11;10.60;;;6.57;;
15153;SDS011;7677;41.896;25.004;2023-03-24T09:27:40;7.47;;;6.00;;
15153;SDS011;7677;41.896;25.004;2023-03-24T09:30:07;7.40;;;5.47;;
15153;SDS011;7677;41.896;25.004;2023-03-24T09:32:35;6.60;;;5.10;;
15153;SDS011;7677;41.896;25.004;2023-03-24T09:35:03;9.53;;;5.50;;
15153;SDS011;7677;41.896;25.004;2023-03-24T09:37:34;6.47;;;5.50;;
15153;SDS011;7677;41.896;25.004;2023-03-24T09:40:03;6.50;;;5.10;;
15153;SDS011;7677;41.896;25.004;2023-03-24T09:42:33;7.53;;;5.43;;
15153;SDS011;7677;41.896;25.004;2023-03-24T09:45:03;6.83;;;5.57;;
15153;SDS011;7677;41.896;25.004;2023-03-24T09:47:41;5.57;;;4.37;;
15153;SDS011;7677;41.896;25.004;2023-03-24T09:50:15;6.73;;;4.83;;
15153;SDS011;7677;41.896;25.004;2023-03-24T09:52:46;6.90;;;5.20;;
15153;SDS011;7677;41.896;25.004;2023-03-24T09:58:03;5.60;;;5.00;;
15153;SDS011;7677;41.896;25.004;2023-03-24T10:00:32;7.73;;;5.33;;
15153;SDS011;7677;41.896;25.004;2023-03-24T10:03:09;5.77;;;5.07;;
15153;SDS011;7677;41.896;25.004;2023-03-24T10:05:40;6.13;;;4.97;;
15153;SDS011;7677;41.896;25.004;2023-03-24T10:08:12;6.60;;;4.43;;
15153;SDS011;7677;41.896;25.004;2023-03-24T10:10:44;8.57;;;4.90;;
15153;SDS011;7677;41.896;25.004;2023-03-24T10:13:19;6.80;;;5.43;;
15153;SDS011;7677;41.896;25.004;2023-03-24T10:15:51;4.93;;;4.40;;
15153;SDS011;7677;41.896;25.004;2023-03-24T10:18:26;6.17;;;5.27;;
15153;SDS011;7677;41.896;25.004;2023-03-24T10:20:58;5.80;;;4.60;;
15153;SDS011;7677;41.896;25.004;2023-03-24T10:23:31;5.43;;;4.77;;
15153;SDS011;7677;41.896;25.004;2023-03-24T10:26:02;7.23;;;4.90;;
15153;SDS011;7677;41.896;25.004;2023-03-24T10:28:34;7.20;;;4.83;;
15153;SDS011;7677;41.896;25.004;2023-03-24T10:31:05;5.77;;;4.77;;
15153;SDS011;7677;41.896;25.004;2023-03-24T10:33:38;5.87;;;4.77;;
15153;SDS011;7677;41.896;25.004;2023-03-24T10:36:08;5.97;;;4.40;;
15153;SDS011;7677;41.896;25.004;2023-03-24T10:38:39;9.67;;;4.67;;
15153;SDS011;7677;41.896;25.004;2023-03-24T10:41:08;4.40;;;4.00;;
15153;SDS011;7677;41.896;25.004;2023-03-24T10:43:39;4.90;;;4.03;;
15153;SDS011;7677;41.896;25.004;2023-03-24T10:46:07;5.60;;;4.70;;
15153;SDS011;7677;41.896;25.004;2023-03-24T10:48:40;4.77;;;4.27;;
15153;SDS011;7677;41.896;25.004;2023-03-24T10:51:13;6.47;;;4.97;;
15153;SDS011;7677;41.896;25.004;2023-03-24T10:53:43;5.30;;;4.03;;
15153;SDS011;7677;41.896;25.004;2023-03-24T10:56:16;6.30;;;4.03;;
15153;SDS011;7677;41.896;25.004;2023-03-24T10:58:45;5.10;;;4.40;;
15153;SDS011;7677;41.896;25.004;2023-03-24T11:01:23;7.13;;;4.50;;
15153;SDS011;7677;41.896;25.004;2023-03-24T11:03:57;5.50;;;4.27;;
15153;SDS011;7677;41.896;25.004;2023-03-24T11:06:27;5.27;;;4.53;;
15153;SDS011;7677;41.896;25.004;2023-03-24T11:09:17;5.33;;;3.80;;
15153;SDS011;7677;41.896;25.004;2023-03-24T11:11:45;5.43;;;4.33;;
15153;SDS011;7677;41.896;25.004;2023-03-24T11:14:20;7.47;;;4.93;;
15153;SDS011;7677;41.896;25.004;2023-03-24T11:17:01;5.13;;;4.30;;
15153;SDS011;7677;41.896;25.004;2023-03-24T11:19:35;3.93;;;3.53;;
15153;SDS011;7677;41.896;25.004;2023-03-24T11:22:04;4.43;;;3.70;;
15153;SDS011;7677;41.896;25.004;2023-03-24T11:24:35;5.23;;;4.17;;
15153;SDS011;7677;41.896;25.004;2023-03-24T11:27:03;4.87;;;3.60;;
15153;SDS011;7677;41.896;25.004;2023-03-24T11:29:31;4.00;;;3.60;;
15153;SDS011;7677;41.896;25.004;2023-03-24T11:32:00;3.67;;;3.23;;
15153;SDS011;7677;41.896;25.004;2023-03-24T11:34:30;5.47;;;3.40;;
15153;SDS011;7677;41.896;25.004;2023-03-24T11:37:03;3.60;;;3.30;;
15153;SDS011;7677;41.896;25.004;2023-03-24T11:39:33;4.87;;;3.33;;
15153;SDS011;7677;41.896;25.004;2023-03-24T11:42:16;3.47;;;3.17;;
15153;SDS011;7677;41.896;25.004;2023-03-24T11:44:55;3.43;;;3.13;;
15153;SDS011;7677;41.896;25.004;2023-03-24T11:47:23;3.63;;;2.80;;
15153;SDS011;7677;41.896;25.004;2023-03-24T11:49:56;3.43;;;3.10;;
15153;SDS011;7677;41.896;25.004;2023-03-24T11:52:30;6.03;;;4.20;;
15153;SDS011;7677;41.896;25.004;2023-03-24T11:55:01;5.50;;;4.00;;
15153;SDS011;7677;41.896;25.004;2023-03-24T11:57:35;4.50;;;3.50;;
15153;SDS011;7677;41.896;25.004;2023-03-24T12:00:23;4.43;;;4.03;;
15153;SDS011;7677;41.896;25.004;2023-03-24T12:03:05;4.20;;;3.80;;
15153;SDS011;7677;41.896;25.004;2023-03-24T12:05:51;4.93;;;3.73;;
15153;SDS011;7677;41.896;25.004;2023-03-24T12:08:28;3.50;;;3.10;;
15153;SDS011;7677;41.896;25.004;2023-03-24T12:11:07;3.70;;;3.00;;
15153;SDS011;7677;41.896;25.004;2023-03-24T12:13:40;2.90;;;2.63;;
15153;SDS011;7677;41.896;25.004;2023-03-24T12:16:15;4.27;;;2.77;;
15153;SDS011;7677;41.896;25.004;2023-03-24T12:19:00;3.37;;;2.97;;
15153;SDS011;7677;41.896;25.004;2023-03-24T12:21:44;3.40;;;2.40;;
15153;SDS011;7677;41.896;25.004;2023-03-24T12:24:22;2.00;;;1.87;;
15153;SDS011;7677;41.896;25.004;2023-03-24T12:26:56;2.87;;;2.40;;
15153;SDS011;7677;41.896;25.004;2023-03-24T12:29:27;2.93;;;2.30;;
15153;SDS011;7677;41.896;25.004;2023-03-24T12:32:15;2.43;;;2.23;;
15153;SDS011;7677;41.896;25.004;2023-03-24T12:34:54;2.90;;;2.50;;
15153;SDS011;7677;41.896;25.004;2023-03-24T12:37:42;2.93;;;2.73;;
15153;SDS011;7677;41.896;25.004;2023-03-24T12:40:25;2.90;;;2.67;;
15153;SDS011;7677;41.896;25.004;2023-03-24T12:43:03;2.80;;;2.53;;
15153;SDS011;7677;41.896;25.004;2023-03-24T12:45:35;2.38;;;2.17;;
15153;SDS011;7677;41.896;25.004;2023-03-24T12:51:06;2.60;;;2.40;;
15153;SDS011;7677;41.896;25.004;2023-03-24T12:53:43;3.27;;;2.63;;
15153;SDS011;7677;41.896;25.004;2023-03-24T12:56:20;2.55;;;2.25;;
15153;SDS011;7677;41.896;25.004;2023-03-24T12:58:54;3.28;;;2.58;;
15153;SDS011;7677;41.896;25.004;2023-03-24T13:01:25;2.93;;;2.20;;
15153;SDS011;7677;41.896;25.004;2023-03-24T13:03:57;2.33;;;2.13;;
15153;SDS011;7677;41.896;25.004;2023-03-24T13:06:31;2.27;;;2.07;;
15153;SDS011;7677;41.896;25.004;2023-03-24T13:09:12;2.13;;;1.93;;
15153;SDS011;7677;41.896;25.004;2023-03-24T13:11:45;2.33;;;2.13;;
15153;SDS011;7677;41.896;25.004;2023-03-24T13:14:17;3.05;;;2.28;;
15153;SDS011;7677;41.896;25.004;2023-03-24T13:16:48;2.15;;;1.80;;
15153;SDS011;7677;41.896;25.004;2023-03-24T13:19:20;2.63;;;2.17;;
15153;SDS011;7677;41.896;25.004;2023-03-24T13:21:52;1.90;;;1.73;;
15153;SDS011;7677;41.896;25.004;2023-03-24T13:24:20;3.33;;;2.00;;
15153;SDS011;7677;41.896;25.004;2023-03-24T13:26:54;2.17;;;1.98;;
15153;SDS011;7677;41.896;25.004;2023-03-24T13:29:48;2.10;;;1.90;;
15153;SDS011;7677;41.896;25.004;2023-03-24T13:32:42;2.25;;;2.05;;
15153;SDS011;7677;41.896;25.004;2023-03-24T13:35:13;2.23;;;2.03;;
15153;SDS011;7677;41.896;25.004;2023-03-24T13:37:46;2.23;;;2.03;;
15153;SDS011;7677;41.896;25.004;2023-03-24T13:40:19;2.80;;;2.13;;
15153;SDS011;7677;41.896;25.004;2023-03-24T13:42:48;2.30;;;2.10;;
15153;SDS011;7677;41.896;25.004;2023-03-24T13:45:29;2.17;;;2.00;;
15153;SDS011;7677;41.896;25.004;2023-03-24T13:48:05;2.23;;;2.03;;
15153;SDS011;7677;41.896;25.004;2023-03-24T13:50:47;2.20;;;2.00;;
15153;SDS011;7677;41.896;25.004;2023-03-24T13:53:18;1.90;;;1.80;;
15153;SDS011;7677;41.896;25.004;2023-03-24T13:56:02;3.97;;;2.53;;
15153;SDS011;7677;41.896;25.004;2023-03-24T13:58:45;2.35;;;2.03;;
15153;SDS011;7677;41.896;25.004;2023-03-24T14:01:17;2.28;;;2.03;;
15153;SDS011;7677;41.896;25.004;2023-03-24T14:04:25;2.10;;;1.90;;
15153;SDS011;7677;41.896;25.004;2023-03-24T14:06:54;2.22;;;2.05;;
15153;SDS011;7677;41.896;25.004;2023-03-24T14:09:21;2.65;;;2.03;;
15153;SDS011;7677;41.896;25.004;2023-03-24T14:15:10;1.90;;;1.80;;
15153;SDS011;7677;41.896;25.004;2023-03-24T14:17:47;2.30;;;2.10;;
15153;SDS011;7677;41.896;25.004;2023-03-24T14:20:25;3.30;;;2.30;;
15153;SDS011;7677;41.896;25.004;2023-03-24T14:23:02;2.30;;;2.10;;
15153;SDS011;7677;41.896;25.004;2023-03-24T14:25:30;2.33;;;2.03;;
15153;SDS011;7677;41.896;25.004;2023-03-24T14:28:19;2.33;;;2.05;;
15153;SDS011;7677;41.896;25.004;2023-03-24T14:30:55;2.05;;;1.90;;
15153;SDS011;7677;41.896;25.004;2023-03-24T14:33:27;3.05;;;2.25;;
15153;SDS011;7677;41.896;25.004;2023-03-24T14:35:56;3.70;;;2.97;;
15153;SDS011;7677;41.896;25.004;2023-03-24T14:38:29;2.65;;;2.08;;
15153;SDS011;7677;41.896;25.004;2023-03-24T14:41:04;2.53;;;2.30;;
15153;SDS011;7677;41.896;25.004;2023-03-24T14:46:31;2.97;;;2.40;;
15153;SDS011;7677;41.896;25.004;2023-03-24T14:49:14;2.45;;;2.25;;
15153;SDS011;7677;41.896;25.004;2023-03-24T14:51:51;2.63;;;2.40;;
15153;SDS011;7677;41.896;25.004;2023-03-24T14:54:22;2.15;;;1.92;;
15153;SDS011;7677;41.896;25.004;2023-03-24T14:57:06;3.63;;;2.30;;
15153;SDS011;7677;41.896;25.004;2023-03-24T14:59:39;2.35;;;2.15;;
15153;SDS011;7677;41.896;25.004;2023-03-24T15:02:15;2.72;;;2.35;;
15153;SDS011;7677;41.896;25.004;2023-03-24T15:07:59;2.50;;;2.30;;
15153;SDS011;7677;41.896;25.004;2023-03-24T15:10:42;2.28;;;2.08;;
15153;SDS011;7677;41.896;25.004;2023-03-24T15:13:22;2.22;;;2.00;;
15153;SDS011;7677;41.896;25.004;2023-03-24T15:16:00;3.15;;;2.20;;
15153;SDS011;7677;41.896;25.004;2023-03-24T15:18:30;2.20;;;2.00;;
15153;SDS011;7677;41.896;25.004;2023-03-24T15:20:59;2.38;;;2.15;;
15153;SDS011;7677;41.896;25.004;2023-03-24T15:23:27;3.85;;;2.70;;
15153;SDS011;7677;41.896;25.004;2023-03-24T15:25:55;2.70;;;2.50;;
15153;SDS011;7677;41.896;25.004;2023-03-24T15:28:23;3.43;;;2.60;;
15153;SDS011;7677;41.896;25.004;2023-03-24T15:30:52;2.97;;;2.67;;
15153;SDS011;7677;41.896;25.004;2023-03-24T15:33:20;3.73;;;2.70;;
15153;SDS011;7677;41.896;25.004;2023-03-24T15:35:53;3.83;;;3.42;;
15153;SDS011;7677;41.896;25.004;2023-03-24T15:38:27;2.85;;;2.60;;